sensor_id;sensor_type;location;lat;lon;timestamp;temperature;humidity
36002;DHT22;22070;50.922;5.430;2023-12-04T00:00:46;3.00;99.90
36002;DHT22;22070;50.922;5.430;2023-12-04T00:03:12;3.10;99.90
36002;DHT22;22070;50.922;5.430;2023-12-04T00:05:38;3.00;99.90
36002;DHT22;22070;50.922;5.430;2023-12-04T00:08:03;3.10;99.90
36002;DHT22;22070;50.922;5.430;2023-12-04T00:10:29;3.10;99.90
36002;DHT22;22070;50.922;5.430;2023-12-04T00:12:55;3.10;99.90
36002;DHT22;22070;50.922;5.430;2023-12-04T00:15:20;3.10;99.90
36002;DHT22;22070;50.922;5.430;2023-12-04T00:17:47;3.10;99.90
36002;DHT22;22070;50.922;5.430;2023-12-04T00:20:12;3.00;99.90
36002;DHT22;22070;50.922;5.430;2023-12-04T00:22:38;3.10;99.90
36002;DHT22;22070;50.922;5.430;2023-12-04T00:25:05;3.00;99.90
36002;DHT22;22070;50.922;5.430;2023-12-04T00:27:31;3.00;99.90
36002;DHT22;22070;50.922;5.430;2023-12-04T00:29:57;3.10;99.90
36002;DHT22;22070;50.922;5.430;2023-12-04T00:32:24;3.20;99.90
36002;DHT22;22070;50.922;5.430;2023-12-04T00:34:49;3.20;99.90
36002;DHT22;22070;50.922;5.430;2023-12-04T00:37:15;3.20;99.90
36002;DHT22;22070;50.922;5.430;2023-12-04T00:39:40;3.20;99.90
36002;DHT22;22070;50.922;5.430;2023-12-04T00:42:06;3.10;99.90
36002;DHT22;22070;50.922;5.430;2023-12-04T00:44:32;3.10;99.90
36002;DHT22;22070;50.922;5.430;2023-12-04T00:46:57;3.10;99.90
36002;DHT22;22070;50.922;5.430;2023-12-04T00:49:23;3.10;99.90
36002;DHT22;22070;50.922;5.430;2023-12-04T00:51:49;3.10;99.90
36002;DHT22;22070;50.922;5.430;2023-12-04T00:54:15;3.10;99.90
36002;DHT22;22070;50.922;5.430;2023-12-04T00:56:41;3.20;99.90
36002;DHT22;22070;50.922;5.430;2023-12-04T00:59:10;3.20;99.90
36002;DHT22;22070;50.922;5.430;2023-12-04T01:01:36;3.10;99.90
36002;DHT22;22070;50.922;5.430;2023-12-04T01:04:03;3.00;99.90
36002;DHT22;22070;50.922;5.430;2023-12-04T01:06:29;3.00;99.90
36002;DHT22;22070;50.922;5.430;2023-12-04T01:08:55;3.10;99.90
36002;DHT22;22070;50.922;5.430;2023-12-04T01:11:21;3.10;99.90
36002;DHT22;22070;50.922;5.430;2023-12-04T01:13:47;3.10;99.90
36002;DHT22;22070;50.922;5.430;2023-12-04T01:16:13;3.00;99.90
36002;DHT22;22070;50.922;5.430;2023-12-04T01:18:39;3.00;99.90
36002;DHT22;22070;50.922;5.430;2023-12-04T01:21:05;3.00;99.90
36002;DHT22;22070;50.922;5.430;2023-12-04T01:23:30;2.90;99.90
36002;DHT22;22070;50.922;5.430;2023-12-04T01:25:56;3.00;99.90
36002;DHT22;22070;50.922;5.430;2023-12-04T01:28:22;3.00;99.90
36002;DHT22;22070;50.922;5.430;2023-12-04T01:30:47;2.90;99.90
36002;DHT22;22070;50.922;5.430;2023-12-04T01:33:13;2.90;99.90
36002;DHT22;22070;50.922;5.430;2023-12-04T01:35:39;2.90;99.90
36002;DHT22;22070;50.922;5.430;2023-12-04T01:38:04;2.90;99.90
36002;DHT22;22070;50.922;5.430;2023-12-04T01:40:30;2.90;99.90
36002;DHT22;22070;50.922;5.430;2023-12-04T01:42:55;2.90;99.90
36002;DHT22;22070;50.922;5.430;2023-12-04T01:45:21;2.90;99.90
36002;DHT22;22070;50.922;5.430;2023-12-04T01:47:47;2.90;99.90
36002;DHT22;22070;50.922;5.430;2023-12-04T01:50:14;2.90;99.90
36002;DHT22;22070;50.922;5.430;2023-12-04T01:52:40;2.90;99.90
36002;DHT22;22070;50.922;5.430;2023-12-04T01:55:06;2.90;99.90
36002;DHT22;22070;50.922;5.430;2023-12-04T01:57:34;2.90;99.90
36002;DHT22;22070;50.922;5.430;2023-12-04T02:00:00;2.80;99.90
36002;DHT22;22070;50.922;5.430;2023-12-04T02:02:28;2.80;99.90
36002;DHT22;22070;50.922;5.430;2023-12-04T02:04:55;2.80;99.90
36002;DHT22;22070;50.922;5.430;2023-12-04T02:07:22;2.70;99.90
36002;DHT22;22070;50.922;5.430;2023-12-04T02:09:48;2.70;99.90
36002;DHT22;22070;50.922;5.430;2023-12-04T02:12:14;2.70;99.90
36002;DHT22;22070;50.922;5.430;2023-12-04T02:14:39;2.70;99.90
36002;DHT22;22070;50.922;5.430;2023-12-04T02:17:06;2.80;99.90
36002;DHT22;22070;50.922;5.430;2023-12-04T02:19:33;2.80;99.90
36002;DHT22;22070;50.922;5.430;2023-12-04T02:21:59;2.80;99.90
36002;DHT22;22070;50.922;5.430;2023-12-04T02:24:25;2.70;99.90
36002;DHT22;22070;50.922;5.430;2023-12-04T02:26:55;2.80;99.90
36002;DHT22;22070;50.922;5.430;2023-12-04T02:29:32;2.70;99.90
36002;DHT22;22070;50.922;5.430;2023-12-04T02:32:02;2.80;99.90
36002;DHT22;22070;50.922;5.430;2023-12-04T02:34:30;2.70;99.90
36002;DHT22;22070;50.922;5.430;2023-12-04T02:36:58;2.70;99.90
36002;DHT22;22070;50.922;5.430;2023-12-04T02:39:24;2.70;99.90
36002;DHT22;22070;50.922;5.430;2023-12-04T02:41:50;2.60;99.90
36002;DHT22;22070;50.922;5.430;2023-12-04T02:44:16;2.60;99.90
36002;DHT22;22070;50.922;5.430;2023-12-04T02:46:42;2.60;99.90
36002;DHT22;22070;50.922;5.430;2023-12-04T02:49:08;2.50;99.90
36002;DHT22;22070;50.922;5.430;2023-12-04T02:51:33;2.60;99.90
36002;DHT22;22070;50.922;5.430;2023-12-04T02:53:59;2.70;99.90
36002;DHT22;22070;50.922;5.430;2023-12-04T02:56:25;2.70;99.90
36002;DHT22;22070;50.922;5.430;2023-12-04T02:58:50;2.70;99.90
36002;DHT22;22070;50.922;5.430;2023-12-04T03:01:16;2.70;99.90
36002;DHT22;22070;50.922;5.430;2023-12-04T03:03:41;2.80;99.90
36002;DHT22;22070;50.922;5.430;2023-12-04T03:06:07;2.70;99.90
36002;DHT22;22070;50.922;5.430;2023-12-04T03:08:33;2.80;99.90
36002;DHT22;22070;50.922;5.430;2023-12-04T03:10:58;2.80;99.90
36002;DHT22;22070;50.922;5.430;2023-12-04T03:13:24;2.90;99.90
36002;DHT22;22070;50.922;5.430;2023-12-04T03:15:50;2.90;99.90
36002;DHT22;22070;50.922;5.430;2023-12-04T03:18:15;2.90;99.90
36002;DHT22;22070;50.922;5.430;2023-12-04T03:20:41;2.90;99.90
36002;DHT22;22070;50.922;5.430;2023-12-04T03:23:06;2.90;99.90
36002;DHT22;22070;50.922;5.430;2023-12-04T03:25:32;2.80;99.90
36002;DHT22;22070;50.922;5.430;2023-12-04T03:27:58;2.80;99.90
36002;DHT22;22070;50.922;5.430;2023-12-04T03:30:23;2.90;99.90
36002;DHT22;22070;50.922;5.430;2023-12-04T03:32:49;2.80;99.90
36002;DHT22;22070;50.922;5.430;2023-12-04T03:35:15;2.80;99.90
36002;DHT22;22070;50.922;5.430;2023-12-04T03:37:40;2.80;99.90
36002;DHT22;22070;50.922;5.430;2023-12-04T03:40:06;2.70;99.90
36002;DHT22;22070;50.922;5.430;2023-12-04T03:42:32;2.80;99.90
36002;DHT22;22070;50.922;5.430;2023-12-04T03:44:58;2.90;99.90
36002;DHT22;22070;50.922;5.430;2023-12-04T03:47:23;2.90;99.90
36002;DHT22;22070;50.922;5.430;2023-12-04T03:49:50;2.80;99.90
36002;DHT22;22070;50.922;5.430;2023-12-04T03:52:16;2.80;99.90
36002;DHT22;22070;50.922;5.430;2023-12-04T03:54:41;2.80;99.90
36002;DHT22;22070;50.922;5.430;2023-12-04T03:57:08;2.80;99.90
36002;DHT22;22070;50.922;5.430;2023-12-04T03:59:34;2.80;99.90
36002;DHT22;22070;50.922;5.430;2023-12-04T04:01:59;2.80;99.90
36002;DHT22;22070;50.922;5.430;2023-12-04T04:04:25;2.90;99.90
36002;DHT22;22070;50.922;5.430;2023-12-04T04:06:51;2.90;99.90
36002;DHT22;22070;50.922;5.430;2023-12-04T04:09:16;3.00;99.90
36002;DHT22;22070;50.922;5.430;2023-12-04T04:11:42;2.90;99.90
36002;DHT22;22070;50.922;5.430;2023-12-04T04:14:08;2.80;99.90
36002;DHT22;22070;50.922;5.430;2023-12-04T04:16:33;3.00;99.90
36002;DHT22;22070;50.922;5.430;2023-12-04T04:18:59;2.90;99.90
36002;DHT22;22070;50.922;5.430;2023-12-04T04:21:24;2.90;99.90
36002;DHT22;22070;50.922;5.430;2023-12-04T04:23:50;2.90;99.90
36002;DHT22;22070;50.922;5.430;2023-12-04T04:26:16;2.80;99.90
36002;DHT22;22070;50.922;5.430;2023-12-04T04:28:41;2.90;99.90
36002;DHT22;22070;50.922;5.430;2023-12-04T04:31:07;2.90;99.90
36002;DHT22;22070;50.922;5.430;2023-12-04T04:33:33;3.00;99.90
36002;DHT22;22070;50.922;5.430;2023-12-04T04:35:58;2.90;99.90
36002;DHT22;22070;50.922;5.430;2023-12-04T04:38:24;2.90;99.90
36002;DHT22;22070;50.922;5.430;2023-12-04T04:40:50;2.90;99.90
36002;DHT22;22070;50.922;5.430;2023-12-04T04:43:17;2.90;99.90
36002;DHT22;22070;50.922;5.430;2023-12-04T04:45:43;3.00;99.90
36002;DHT22;22070;50.922;5.430;2023-12-04T04:48:09;2.90;99.90
36002;DHT22;22070;50.922;5.430;2023-12-04T04:50:34;2.80;99.90
36002;DHT22;22070;50.922;5.430;2023-12-04T04:53:00;2.90;99.90
36002;DHT22;22070;50.922;5.430;2023-12-04T04:55:26;2.90;99.90
36002;DHT22;22070;50.922;5.430;2023-12-04T04:57:51;2.90;99.90
36002;DHT22;22070;50.922;5.430;2023-12-04T05:00:17;2.90;99.90
36002;DHT22;22070;50.922;5.430;2023-12-04T05:02:43;2.90;99.90
36002;DHT22;22070;50.922;5.430;2023-12-04T05:05:09;2.90;99.90
36002;DHT22;22070;50.922;5.430;2023-12-04T05:07:34;3.00;99.90
36002;DHT22;22070;50.922;5.430;2023-12-04T05:10:00;3.20;99.90
36002;DHT22;22070;50.922;5.430;2023-12-04T05:12:26;3.00;99.90
36002;DHT22;22070;50.922;5.430;2023-12-04T05:14:51;3.00;99.90
36002;DHT22;22070;50.922;5.430;2023-12-04T05:17:17;3.00;99.90
36002;DHT22;22070;50.922;5.430;2023-12-04T05:19:42;2.90;99.90
36002;DHT22;22070;50.922;5.430;2023-12-04T05:22:08;3.00;99.90
36002;DHT22;22070;50.922;5.430;2023-12-04T05:24:34;3.10;99.90
36002;DHT22;22070;50.922;5.430;2023-12-04T05:27:01;3.20;99.90
36002;DHT22;22070;50.922;5.430;2023-12-04T05:29:27;3.20;99.90
36002;DHT22;22070;50.922;5.430;2023-12-04T05:31:53;3.30;99.90
36002;DHT22;22070;50.922;5.430;2023-12-04T05:34:19;3.20;99.90
36002;DHT22;22070;50.922;5.430;2023-12-04T05:36:44;3.20;99.90
36002;DHT22;22070;50.922;5.430;2023-12-04T05:39:10;3.30;99.90
36002;DHT22;22070;50.922;5.430;2023-12-04T05:41:36;3.30;99.90
36002;DHT22;22070;50.922;5.430;2023-12-04T05:44:01;3.20;99.90
36002;DHT22;22070;50.922;5.430;2023-12-04T05:46:27;3.30;99.90
36002;DHT22;22070;50.922;5.430;2023-12-04T05:48:53;3.20;99.90
36002;DHT22;22070;50.922;5.430;2023-12-04T05:51:18;3.30;99.90
36002;DHT22;22070;50.922;5.430;2023-12-04T05:53:44;3.30;99.90
36002;DHT22;22070;50.922;5.430;2023-12-04T05:56:10;3.30;99.90
36002;DHT22;22070;50.922;5.430;2023-12-04T05:58:36;3.40;99.90
36002;DHT22;22070;50.922;5.430;2023-12-04T06:01:01;3.40;99.90
36002;DHT22;22070;50.922;5.430;2023-12-04T06:03:28;3.30;99.90
36002;DHT22;22070;50.922;5.430;2023-12-04T06:05:53;3.40;99.90
36002;DHT22;22070;50.922;5.430;2023-12-04T06:08:19;3.40;99.90
36002;DHT22;22070;50.922;5.430;2023-12-04T06:10:46;3.30;99.90
36002;DHT22;22070;50.922;5.430;2023-12-04T06:13:11;3.30;99.90
36002;DHT22;22070;50.922;5.430;2023-12-04T06:15:37;3.30;99.90
36002;DHT22;22070;50.922;5.430;2023-12-04T06:18:03;3.30;99.90
36002;DHT22;22070;50.922;5.430;2023-12-04T06:20:29;3.30;99.90
36002;DHT22;22070;50.922;5.430;2023-12-04T06:22:55;3.30;99.90
36002;DHT22;22070;50.922;5.430;2023-12-04T06:25:21;3.20;99.90
36002;DHT22;22070;50.922;5.430;2023-12-04T06:27:47;3.10;99.90
36002;DHT22;22070;50.922;5.430;2023-12-04T06:30:13;3.20;99.90
36002;DHT22;22070;50.922;5.430;2023-12-04T06:32:39;3.10;99.90
36002;DHT22;22070;50.922;5.430;2023-12-04T06:35:05;3.20;99.90
36002;DHT22;22070;50.922;5.430;2023-12-04T06:37:31;3.20;99.90
36002;DHT22;22070;50.922;5.430;2023-12-04T06:40:00;3.30;99.90
36002;DHT22;22070;50.922;5.430;2023-12-04T06:42:28;3.20;99.90
36002;DHT22;22070;50.922;5.430;2023-12-04T06:44:54;3.30;99.90
36002;DHT22;22070;50.922;5.430;2023-12-04T06:47:22;3.40;99.90
36002;DHT22;22070;50.922;5.430;2023-12-04T06:49:48;3.40;99.90
36002;DHT22;22070;50.922;5.430;2023-12-04T06:52:14;3.50;99.90
36002;DHT22;22070;50.922;5.430;2023-12-04T06:54:39;3.50;99.90
36002;DHT22;22070;50.922;5.430;2023-12-04T06:57:05;3.60;99.90
36002;DHT22;22070;50.922;5.430;2023-12-04T06:59:31;3.50;99.90
36002;DHT22;22070;50.922;5.430;2023-12-04T07:01:56;3.50;99.90
36002;DHT22;22070;50.922;5.430;2023-12-04T07:04:22;3.60;99.90
36002;DHT22;22070;50.922;5.430;2023-12-04T07:06:48;3.60;99.90
36002;DHT22;22070;50.922;5.430;2023-12-04T07:09:14;3.70;99.90
36002;DHT22;22070;50.922;5.430;2023-12-04T07:11:42;3.70;99.90
36002;DHT22;22070;50.922;5.430;2023-12-04T07:14:08;3.80;99.90
36002;DHT22;22070;50.922;5.430;2023-12-04T07:16:41;3.90;99.90
36002;DHT22;22070;50.922;5.430;2023-12-04T07:19:08;3.80;99.90
36002;DHT22;22070;50.922;5.430;2023-12-04T07:21:34;3.80;99.90
36002;DHT22;22070;50.922;5.430;2023-12-04T07:24:00;3.80;99.90
36002;DHT22;22070;50.922;5.430;2023-12-04T07:26:26;3.90;99.90
36002;DHT22;22070;50.922;5.430;2023-12-04T07:28:51;3.90;99.90
36002;DHT22;22070;50.922;5.430;2023-12-04T07:31:17;3.90;99.90
36002;DHT22;22070;50.922;5.430;2023-12-04T07:33:43;3.90;99.90
36002;DHT22;22070;50.922;5.430;2023-12-04T07:36:09;3.90;99.90
36002;DHT22;22070;50.922;5.430;2023-12-04T07:38:34;3.90;99.90
36002;DHT22;22070;50.922;5.430;2023-12-04T07:41:00;3.90;99.90
36002;DHT22;22070;50.922;5.430;2023-12-04T07:43:26;3.90;99.90
36002;DHT22;22070;50.922;5.430;2023-12-04T07:45:54;3.90;99.90
36002;DHT22;22070;50.922;5.430;2023-12-04T07:48:20;3.90;99.90
36002;DHT22;22070;50.922;5.430;2023-12-04T07:50:46;3.90;99.90
36002;DHT22;22070;50.922;5.430;2023-12-04T07:53:11;4.00;99.90
36002;DHT22;22070;50.922;5.430;2023-12-04T07:55:38;4.00;99.90
36002;DHT22;22070;50.922;5.430;2023-12-04T07:58:04;4.00;99.90
36002;DHT22;22070;50.922;5.430;2023-12-04T08:00:29;4.00;99.90
36002;DHT22;22070;50.922;5.430;2023-12-04T08:02:55;4.00;99.90
36002;DHT22;22070;50.922;5.430;2023-12-04T08:05:21;3.90;99.90
36002;DHT22;22070;50.922;5.430;2023-12-04T08:07:47;3.90;99.90
36002;DHT22;22070;50.922;5.430;2023-12-04T08:10:13;4.00;99.90
36002;DHT22;22070;50.922;5.430;2023-12-04T08:12:38;4.00;99.90
36002;DHT22;22070;50.922;5.430;2023-12-04T08:15:05;4.00;99.90
36002;DHT22;22070;50.922;5.430;2023-12-04T08:17:31;4.00;99.90
36002;DHT22;22070;50.922;5.430;2023-12-04T08:19:57;4.00;99.90
36002;DHT22;22070;50.922;5.430;2023-12-04T08:22:22;3.90;99.90
36002;DHT22;22070;50.922;5.430;2023-12-04T08:24:48;3.90;99.90
36002;DHT22;22070;50.922;5.430;2023-12-04T08:27:14;3.90;99.90
36002;DHT22;22070;50.922;5.430;2023-12-04T08:29:40;3.90;99.90
36002;DHT22;22070;50.922;5.430;2023-12-04T08:32:06;4.00;99.90
36002;DHT22;22070;50.922;5.430;2023-12-04T08:34:31;4.00;99.90
36002;DHT22;22070;50.922;5.430;2023-12-04T08:36:57;4.00;99.90
36002;DHT22;22070;50.922;5.430;2023-12-04T08:39:23;4.00;99.90
36002;DHT22;22070;50.922;5.430;2023-12-04T08:41:48;4.00;99.90
36002;DHT22;22070;50.922;5.430;2023-12-04T08:44:14;4.00;99.90
36002;DHT22;22070;50.922;5.430;2023-12-04T08:46:41;4.00;99.90
36002;DHT22;22070;50.922;5.430;2023-12-04T08:49:07;4.00;99.90
36002;DHT22;22070;50.922;5.430;2023-12-04T08:51:32;4.10;99.90
36002;DHT22;22070;50.922;5.430;2023-12-04T08:53:58;4.10;99.90
36002;DHT22;22070;50.922;5.430;2023-12-04T08:56:24;4.10;99.90
36002;DHT22;22070;50.922;5.430;2023-12-04T08:58:49;4.10;99.90
36002;DHT22;22070;50.922;5.430;2023-12-04T09:01:16;4.10;99.90
36002;DHT22;22070;50.922;5.430;2023-12-04T09:03:42;4.10;99.90
36002;DHT22;22070;50.922;5.430;2023-12-04T09:06:07;4.20;99.90
36002;DHT22;22070;50.922;5.430;2023-12-04T09:08:34;4.10;99.90
36002;DHT22;22070;50.922;5.430;2023-12-04T09:11:00;4.10;99.90
36002;DHT22;22070;50.922;5.430;2023-12-04T09:13:26;4.10;99.90
36002;DHT22;22070;50.922;5.430;2023-12-04T09:15:51;4.10;99.90
36002;DHT22;22070;50.922;5.430;2023-12-04T09:18:17;4.10;99.90
36002;DHT22;22070;50.922;5.430;2023-12-04T09:20:43;4.10;99.90
36002;DHT22;22070;50.922;5.430;2023-12-04T09:23:09;4.20;99.90
36002;DHT22;22070;50.922;5.430;2023-12-04T09:25:35;4.20;99.90
36002;DHT22;22070;50.922;5.430;2023-12-04T09:28:01;4.10;99.90
36002;DHT22;22070;50.922;5.430;2023-12-04T09:30:27;4.20;99.90
36002;DHT22;22070;50.922;5.430;2023-12-04T09:32:54;4.30;99.90
36002;DHT22;22070;50.922;5.430;2023-12-04T09:35:19;4.20;99.90
36002;DHT22;22070;50.922;5.430;2023-12-04T09:37:45;4.30;99.90
36002;DHT22;22070;50.922;5.430;2023-12-04T09:40:11;4.40;99.90
36002;DHT22;22070;50.922;5.430;2023-12-04T09:42:38;4.40;99.90
36002;DHT22;22070;50.922;5.430;2023-12-04T09:45:05;4.40;99.90
36002;DHT22;22070;50.922;5.430;2023-12-04T09:47:32;4.40;99.90
36002;DHT22;22070;50.922;5.430;2023-12-04T09:49:58;4.40;99.90
36002;DHT22;22070;50.922;5.430;2023-12-04T09:52:25;4.50;99.90
36002;DHT22;22070;50.922;5.430;2023-12-04T09:54:52;4.50;99.90
36002;DHT22;22070;50.922;5.430;2023-12-04T09:57:18;4.50;99.90
36002;DHT22;22070;50.922;5.430;2023-12-04T09:59:44;4.60;99.90
36002;DHT22;22070;50.922;5.430;2023-12-04T10:02:11;4.50;99.90
36002;DHT22;22070;50.922;5.430;2023-12-04T10:04:37;4.50;99.90
36002;DHT22;22070;50.922;5.430;2023-12-04T10:07:03;4.50;99.90
36002;DHT22;22070;50.922;5.430;2023-12-04T10:09:29;4.50;99.90
36002;DHT22;22070;50.922;5.430;2023-12-04T10:11:58;4.70;99.90
36002;DHT22;22070;50.922;5.430;2023-12-04T10:14:25;4.60;99.90
36002;DHT22;22070;50.922;5.430;2023-12-04T10:16:51;4.70;99.90
36002;DHT22;22070;50.922;5.430;2023-12-04T10:19:25;4.60;99.90
36002;DHT22;22070;50.922;5.430;2023-12-04T10:21:52;4.60;99.90
36002;DHT22;22070;50.922;5.430;2023-12-04T10:24:33;4.50;99.90
36002;DHT22;22070;50.922;5.430;2023-12-04T10:27:02;4.60;99.90
36002;DHT22;22070;50.922;5.430;2023-12-04T10:29:49;4.50;99.90
36002;DHT22;22070;50.922;5.430;2023-12-04T10:32:19;4.40;99.90
36002;DHT22;22070;50.922;5.430;2023-12-04T10:34:48;4.30;99.90
36002;DHT22;22070;50.922;5.430;2023-12-04T10:37:14;4.30;99.90
36002;DHT22;22070;50.922;5.430;2023-12-04T10:39:50;4.40;99.90
36002;DHT22;22070;50.922;5.430;2023-12-04T10:42:24;4.40;99.90
36002;DHT22;22070;50.922;5.430;2023-12-04T10:44:52;4.40;99.90
36002;DHT22;22070;50.922;5.430;2023-12-04T10:47:20;4.20;99.90
36002;DHT22;22070;50.922;5.430;2023-12-04T10:49:49;4.30;99.90
36002;DHT22;22070;50.922;5.430;2023-12-04T10:52:15;4.30;99.90
36002;DHT22;22070;50.922;5.430;2023-12-04T10:54:41;4.20;99.90
36002;DHT22;22070;50.922;5.430;2023-12-04T10:57:08;4.20;99.90
36002;DHT22;22070;50.922;5.430;2023-12-04T10:59:36;4.20;99.90
36002;DHT22;22070;50.922;5.430;2023-12-04T11:02:05;4.20;99.90
36002;DHT22;22070;50.922;5.430;2023-12-04T11:04:35;4.20;99.90
36002;DHT22;22070;50.922;5.430;2023-12-04T11:07:02;4.10;99.90
36002;DHT22;22070;50.922;5.430;2023-12-04T11:09:35;4.20;99.90
36002;DHT22;22070;50.922;5.430;2023-12-04T11:12:04;4.10;99.90
36002;DHT22;22070;50.922;5.430;2023-12-04T11:14:39;4.00;99.90
36002;DHT22;22070;50.922;5.430;2023-12-04T11:17:09;3.90;99.90
36002;DHT22;22070;50.922;5.430;2023-12-04T11:19:50;3.90;99.90
36002;DHT22;22070;50.922;5.430;2023-12-04T11:22:17;3.80;99.90
36002;DHT22;22070;50.922;5.430;2023-12-04T11:24:47;3.80;99.90
36002;DHT22;22070;50.922;5.430;2023-12-04T11:27:16;4.00;99.90
36002;DHT22;22070;50.922;5.430;2023-12-04T11:29:42;4.10;99.90
36002;DHT22;22070;50.922;5.430;2023-12-04T11:32:16;4.00;99.90
36002;DHT22;22070;50.922;5.430;2023-12-04T11:34:54;4.10;99.90
36002;DHT22;22070;50.922;5.430;2023-12-04T11:37:22;4.30;99.90
36002;DHT22;22070;50.922;5.430;2023-12-04T11:39:50;4.20;99.90
36002;DHT22;22070;50.922;5.430;2023-12-04T11:42:19;4.20;99.90
36002;DHT22;22070;50.922;5.430;2023-12-04T11:44:48;4.30;99.90
36002;DHT22;22070;50.922;5.430;2023-12-04T11:47:14;4.30;99.90
36002;DHT22;22070;50.922;5.430;2023-12-04T11:49:39;4.30;99.90
36002;DHT22;22070;50.922;5.430;2023-12-04T11:52:06;4.50;99.90
36002;DHT22;22070;50.922;5.430;2023-12-04T11:54:58;4.50;99.90
36002;DHT22;22070;50.922;5.430;2023-12-04T11:57:33;4.50;99.90
36002;DHT22;22070;50.922;5.430;2023-12-04T12:00:12;4.50;99.90
36002;DHT22;22070;50.922;5.430;2023-12-04T12:02:41;4.50;99.90
36002;DHT22;22070;50.922;5.430;2023-12-04T12:05:06;4.40;99.90
36002;DHT22;22070;50.922;5.430;2023-12-04T12:07:33;4.50;99.90
36002;DHT22;22070;50.922;5.430;2023-12-04T12:09:59;4.60;99.90
36002;DHT22;22070;50.922;5.430;2023-12-04T12:12:27;4.60;99.90
36002;DHT22;22070;50.922;5.430;2023-12-04T12:14:53;4.70;99.90
36002;DHT22;22070;50.922;5.430;2023-12-04T12:17:18;4.80;99.90
36002;DHT22;22070;50.922;5.430;2023-12-04T12:19:45;4.90;99.90
36002;DHT22;22070;50.922;5.430;2023-12-04T12:22:11;5.00;99.90
36002;DHT22;22070;50.922;5.430;2023-12-04T12:24:37;5.10;99.90
36002;DHT22;22070;50.922;5.430;2023-12-04T12:27:03;5.20;99.90
36002;DHT22;22070;50.922;5.430;2023-12-04T12:29:29;5.10;99.90
36002;DHT22;22070;50.922;5.430;2023-12-04T12:31:55;5.00;99.90
36002;DHT22;22070;50.922;5.430;2023-12-04T12:34:21;4.90;99.90
36002;DHT22;22070;50.922;5.430;2023-12-04T12:36:46;5.00;99.90
36002;DHT22;22070;50.922;5.430;2023-12-04T12:39:13;4.90;99.90
36002;DHT22;22070;50.922;5.430;2023-12-04T12:41:38;4.90;99.90
36002;DHT22;22070;50.922;5.430;2023-12-04T12:44:04;4.90;99.90
36002;DHT22;22070;50.922;5.430;2023-12-04T12:46:31;5.00;99.90
36002;DHT22;22070;50.922;5.430;2023-12-04T12:48:57;5.00;99.90
36002;DHT22;22070;50.922;5.430;2023-12-04T12:51:23;5.00;99.90
36002;DHT22;22070;50.922;5.430;2023-12-04T12:53:49;5.00;99.90
36002;DHT22;22070;50.922;5.430;2023-12-04T12:56:15;5.00;99.90
36002;DHT22;22070;50.922;5.430;2023-12-04T12:58:41;5.00;99.90
36002;DHT22;22070;50.922;5.430;2023-12-04T13:01:10;5.00;99.90
36002;DHT22;22070;50.922;5.430;2023-12-04T13:03:36;5.00;99.90
36002;DHT22;22070;50.922;5.430;2023-12-04T13:06:03;5.10;99.90
36002;DHT22;22070;50.922;5.430;2023-12-04T13:08:29;5.10;99.90
36002;DHT22;22070;50.922;5.430;2023-12-04T13:10:55;5.00;99.90
36002;DHT22;22070;50.922;5.430;2023-12-04T13:13:21;5.20;99.90
36002;DHT22;22070;50.922;5.430;2023-12-04T13:15:46;5.20;99.90
36002;DHT22;22070;50.922;5.430;2023-12-04T13:18:12;5.10;99.90
36002;DHT22;22070;50.922;5.430;2023-12-04T13:20:37;5.10;99.90
36002;DHT22;22070;50.922;5.430;2023-12-04T13:23:03;5.10;99.90
36002;DHT22;22070;50.922;5.430;2023-12-04T13:25:29;5.10;99.90
36002;DHT22;22070;50.922;5.430;2023-12-04T13:27:54;5.10;99.90
36002;DHT22;22070;50.922;5.430;2023-12-04T13:30:20;5.20;99.90
36002;DHT22;22070;50.922;5.430;2023-12-04T13:32:46;5.20;99.90
36002;DHT22;22070;50.922;5.430;2023-12-04T13:35:12;5.20;99.90
36002;DHT22;22070;50.922;5.430;2023-12-04T13:37:37;5.20;99.90
36002;DHT22;22070;50.922;5.430;2023-12-04T13:40:05;5.30;99.90
36002;DHT22;22070;50.922;5.430;2023-12-04T13:42:38;5.30;99.90
36002;DHT22;22070;50.922;5.430;2023-12-04T13:45:22;5.20;99.90
36002;DHT22;22070;50.922;5.430;2023-12-04T13:47:48;5.10;99.90
36002;DHT22;22070;50.922;5.430;2023-12-04T13:50:15;5.10;99.90
36002;DHT22;22070;50.922;5.430;2023-12-04T13:52:41;5.10;99.90
36002;DHT22;22070;50.922;5.430;2023-12-04T13:55:09;5.10;99.90
36002;DHT22;22070;50.922;5.430;2023-12-04T13:57:46;5.10;99.90
36002;DHT22;22070;50.922;5.430;2023-12-04T14:00:32;5.10;99.90
36002;DHT22;22070;50.922;5.430;2023-12-04T14:02:57;5.20;99.90
36002;DHT22;22070;50.922;5.430;2023-12-04T14:05:30;5.10;99.90
36002;DHT22;22070;50.922;5.430;2023-12-04T14:07:56;5.10;99.90
36002;DHT22;22070;50.922;5.430;2023-12-04T14:10:24;5.10;99.90
36002;DHT22;22070;50.922;5.430;2023-12-04T14:12:51;5.10;99.90
36002;DHT22;22070;50.922;5.430;2023-12-04T14:15:17;5.20;99.90
36002;DHT22;22070;50.922;5.430;2023-12-04T14:17:43;5.10;99.90
36002;DHT22;22070;50.922;5.430;2023-12-04T14:20:09;5.00;99.90
36002;DHT22;22070;50.922;5.430;2023-12-04T14:22:42;5.10;99.90
36002;DHT22;22070;50.922;5.430;2023-12-04T14:25:08;5.00;99.90
36002;DHT22;22070;50.922;5.430;2023-12-04T14:27:34;5.00;99.90
36002;DHT22;22070;50.922;5.430;2023-12-04T14:30:01;5.00;99.90
36002;DHT22;22070;50.922;5.430;2023-12-04T14:32:29;5.00;99.90
36002;DHT22;22070;50.922;5.430;2023-12-04T14:34:54;5.00;99.90
36002;DHT22;22070;50.922;5.430;2023-12-04T14:37:20;5.00;99.90
36002;DHT22;22070;50.922;5.430;2023-12-04T14:39:46;4.90;99.90
36002;DHT22;22070;50.922;5.430;2023-12-04T14:42:11;4.90;99.90
36002;DHT22;22070;50.922;5.430;2023-12-04T14:44:37;4.90;99.90
36002;DHT22;22070;50.922;5.430;2023-12-04T14:47:04;5.00;99.90
36002;DHT22;22070;50.922;5.430;2023-12-04T14:49:30;4.90;99.90
36002;DHT22;22070;50.922;5.430;2023-12-04T14:51:57;4.80;99.90
36002;DHT22;22070;50.922;5.430;2023-12-04T14:54:23;4.80;99.90
36002;DHT22;22070;50.922;5.430;2023-12-04T14:57:04;4.70;99.90
36002;DHT22;22070;50.922;5.430;2023-12-04T14:59:45;4.80;99.90
36002;DHT22;22070;50.922;5.430;2023-12-04T15:02:31;4.80;99.90
36002;DHT22;22070;50.922;5.430;2023-12-04T15:05:12;4.70;99.90
36002;DHT22;22070;50.922;5.430;2023-12-04T15:07:56;4.70;99.90
36002;DHT22;22070;50.922;5.430;2023-12-04T15:10:27;4.70;99.90
36002;DHT22;22070;50.922;5.430;2023-12-04T15:13:11;4.70;99.90
36002;DHT22;22070;50.922;5.430;2023-12-04T15:15:55;4.70;99.90
36002;DHT22;22070;50.922;5.430;2023-12-04T15:18:27;4.80;99.90
36002;DHT22;22070;50.922;5.430;2023-12-04T15:21:15;4.80;99.90
36002;DHT22;22070;50.922;5.430;2023-12-04T15:23:41;4.90;99.90
36002;DHT22;22070;50.922;5.430;2023-12-04T15:26:07;4.90;99.90
36002;DHT22;22070;50.922;5.430;2023-12-04T15:28:32;4.90;99.90
36002;DHT22;22070;50.922;5.430;2023-12-04T15:30:58;4.90;99.90
36002;DHT22;22070;50.922;5.430;2023-12-04T15:33:25;4.80;99.90
36002;DHT22;22070;50.922;5.430;2023-12-04T15:35:53;4.80;99.90
36002;DHT22;22070;50.922;5.430;2023-12-04T15:38:19;4.70;99.90
36002;DHT22;22070;50.922;5.430;2023-12-04T15:40:45;4.70;99.90
36002;DHT22;22070;50.922;5.430;2023-12-04T15:43:11;4.80;99.90